Terminal Aerodrome Forecast
Issued by NWS

Home | Current Version | Previous Version | Text Only | Print | Product List | Glossary On
Versions: 1 2 3 4 5 6 7 8 9 10 11 12 13 14 15 16 17
355
FTUS41 KCAR 271736
TAFHUL
TAF
KHUL 271736Z 2718/2818 13008KT 1SM -SN OVC020
     FM280200 13006KT 1SM -FZRASNPL OVC020
     FM280400 12005KT 2SM -FZRASNPL OVC015
     FM280500 12005KT P6SM OVC015
     FM280600 12005KT 6SM BR OVC010
     FM281000 11006KT 6SM BR OVC010
     FM281700 13005KT 3SM -RA OVC008=

USA.gov is the U.S. government's official web portal to all federal, state and local government web resources and services.